PWSweather.com
Personal Weather Stations
Station Observations
KMIEASTT1
Tawas Bay, East Tawas, MI 48730

Tawas BayEast Tawas, MI 48730

Lat: 44.28, Lon: -83.48

Elevation: 600

Station Type: Davis VantagePro

http://www.tawasbayweather.com

High Low Average
Temperature 22.0°F-5.6°F 2.1°F-16.6°F 14.5°F-9.7°F
Dew Point 14.6°F-9.7°F -5.1°F-20.6°F 7.7°F-13.5°F
Winds 18.0 mph NNE29.0 mph NNE Calm Calm 8.8 mph 14.2 mph
Wind Gusts 22.0 mph35.4 mph 5.0 mph8.0 mph 13.8 mph22.2 mph
Humidity 88% 61% 74%
Pressure 30.30 in1026.10 in 29.96 in1014.60 in -
Precipitation 0.00 in0.00 in - -
Hour Temp Dew Point Humidity Winds Wind Gusts Pressure Precip Precip Rate Daily Precip Total
12:00 AM 16.1°F-8.8°C 9.6°F-12.4°C 75% 14.0 mph SW22.5 kmh SW 18.0 mph29.0 kmh 30.21 in1023.0 mb 0.00 in0.0 mm 0.00 in0.0 mm 0.00 in0.0 mm
12:15 AM 15.6°F-9.1°C 9.7°F-12.4°C 77% 9.0 mph WSW14.5 kmh WSW 16.0 mph25.7 kmh 30.21 in1023.0 mb 0.00 in0.0 mm 0.00 in0.0 mm 0.00 in0.0 mm
12:30 AM 15.5°F-9.2°C 9.6°F-12.4°C 77% 12.0 mph WSW19.3 kmh WSW 17.0 mph27.4 kmh 30.20 in1022.7 mb 0.00 in0.0 mm 0.00 in0.0 mm 0.00 in0.0 mm
12:45 AM 15.2°F-9.3°C 9.3°F-12.6°C 77% 11.0 mph WSW17.7 kmh WSW 14.0 mph22.5 kmh 30.20 in1022.7 mb 0.00 in0.0 mm 0.00 in0.0 mm 0.00 in0.0 mm
01:00 AM 15.3°F-9.3°C 9.7°F-12.4°C 78% 12.0 mph WSW19.3 kmh WSW 15.0 mph24.1 kmh 30.20 in1022.7 mb 0.00 in0.0 mm 0.00 in0.0 mm 0.00 in0.0 mm
01:15 AM 15.6°F-9.1°C 10.3°F-12.1°C 79% 13.0 mph WSW20.9 kmh WSW 18.0 mph29.0 kmh 30.19 in1022.4 mb 0.00 in0.0 mm 0.00 in0.0 mm 0.00 in0.0 mm
01:30 AM 15.6°F-9.1°C 10.3°F-12.1°C 79% 14.0 mph SW22.5 kmh SW 20.0 mph32.2 kmh 30.18 in1022.0 mb 0.00 in0.0 mm 0.00 in0.0 mm 0.00 in0.0 mm
01:45 AM 15.5°F-9.2°C 10.4°F-12.0°C 80% 13.0 mph WSW20.9 kmh WSW 16.0 mph25.7 kmh 30.17 in1021.7 mb 0.00 in0.0 mm 0.00 in0.0 mm 0.00 in0.0 mm
02:00 AM 15.3°F-9.3°C 10.5°F-11.9°C 81% 13.0 mph WSW20.9 kmh WSW 16.0 mph25.7 kmh 30.17 in1021.7 mb 0.00 in0.0 mm 0.00 in0.0 mm 0.00 in0.0 mm
02:15 AM 15.1°F-9.4°C 10.3°F-12.1°C 81% 12.0 mph WSW19.3 kmh WSW 16.0 mph25.7 kmh 30.16 in1021.3 mb 0.00 in0.0 mm 0.00 in0.0 mm 0.00 in0.0 mm
02:30 AM 15.1°F-9.4°C 10.3°F-12.1°C 81% 12.0 mph SW19.3 kmh SW 18.0 mph29.0 kmh 30.15 in1021.0 mb 0.00 in0.0 mm 0.00 in0.0 mm 0.00 in0.0 mm
02:45 AM 15.2°F-9.3°C 10.7°F-11.8°C 82% 9.0 mph WSW14.5 kmh WSW 15.0 mph24.1 kmh 30.15 in1021.0 mb 0.00 in0.0 mm 0.00 in0.0 mm 0.00 in0.0 mm
03:00 AM 15.4°F-9.2°C 10.9°F-11.7°C 82% 10.0 mph WSW16.1 kmh WSW 13.0 mph20.9 kmh 30.14 in1020.7 mb 0.00 in0.0 mm 0.00 in0.0 mm 0.00 in0.0 mm
03:15 AM 15.3°F-9.3°C 10.8°F-11.8°C 82% 11.0 mph WSW17.7 kmh WSW 16.0 mph25.7 kmh 30.14 in1020.7 mb 0.00 in0.0 mm 0.00 in0.0 mm 0.00 in0.0 mm
03:30 AM 15.2°F-9.3°C 10.7°F-11.8°C 82% 15.0 mph SW24.1 kmh SW 15.0 mph24.1 kmh 30.13 in1020.3 mb 0.00 in0.0 mm 0.00 in0.0 mm 0.00 in0.0 mm
03:45 AM 15.2°F-9.3°C 10.7°F-11.8°C 82% 13.0 mph SW20.9 kmh SW 16.0 mph25.7 kmh 30.12 in1020.0 mb 0.00 in0.0 mm 0.00 in0.0 mm 0.00 in0.0 mm
04:00 AM 15.2°F-9.3°C 11.0°F-11.7°C 83% 14.0 mph WSW22.5 kmh WSW 16.0 mph25.7 kmh 30.12 in1020.0 mb 0.00 in0.0 mm 0.00 in0.0 mm 0.00 in0.0 mm
04:15 AM 15.1°F-9.4°C 10.6°F-11.9°C 82% 13.0 mph WSW20.9 kmh WSW 15.0 mph24.1 kmh 30.11 in1019.6 mb 0.00 in0.0 mm 0.00 in0.0 mm 0.00 in0.0 mm
04:30 AM 15.2°F-9.3°C 10.7°F-11.8°C 82% 12.0 mph WSW19.3 kmh WSW 18.0 mph29.0 kmh 30.10 in1019.3 mb 0.00 in0.0 mm 0.00 in0.0 mm 0.00 in0.0 mm
04:45 AM 15.4°F-9.2°C 10.9°F-11.7°C 82% 14.0 mph WSW22.5 kmh WSW 14.0 mph22.5 kmh 30.10 in1019.3 mb 0.00 in0.0 mm 0.00 in0.0 mm 0.00 in0.0 mm
05:00 AM 15.8°F-9.0°C 11.0°F-11.7°C 81% 13.0 mph WSW20.9 kmh WSW 16.0 mph25.7 kmh 30.09 in1019.0 mb 0.00 in0.0 mm 0.00 in0.0 mm 0.00 in0.0 mm
05:15 AM 16.2°F-8.8°C 11.4°F-11.4°C 81% 15.0 mph WSW24.1 kmh WSW 15.0 mph24.1 kmh 30.09 in1019.0 mb 0.00 in0.0 mm 0.00 in0.0 mm 0.00 in0.0 mm
05:30 AM 16.4°F-8.7°C 11.6°F-11.3°C 81% 13.0 mph WSW20.9 kmh WSW 15.0 mph24.1 kmh 30.08 in1018.6 mb 0.00 in0.0 mm 0.00 in0.0 mm 0.00 in0.0 mm
05:45 AM 16.5°F-8.6°C 11.7°F-11.3°C 81% 13.0 mph WSW20.9 kmh WSW 14.0 mph22.5 kmh 30.08 in1018.6 mb 0.00 in0.0 mm 0.00 in0.0 mm 0.00 in0.0 mm
06:00 AM 16.5°F-8.6°C 11.4°F-11.4°C 80% 9.0 mph W14.5 kmh W 12.0 mph19.3 kmh 30.08 in1018.6 mb 0.00 in0.0 mm 0.00 in0.0 mm 0.00 in0.0 mm
06:15 AM 16.6°F-8.6°C 11.5°F-11.4°C 80% 11.0 mph SW17.7 kmh SW 14.0 mph22.5 kmh 30.07 in1018.3 mb 0.00 in0.0 mm 0.00 in0.0 mm 0.00 in0.0 mm
06:30 AM 16.6°F-8.6°C 11.5°F-11.4°C 80% 9.0 mph WSW14.5 kmh WSW 18.0 mph29.0 kmh 30.06 in1017.9 mb 0.00 in0.0 mm 0.00 in0.0 mm 0.00 in0.0 mm
06:45 AM 16.4°F-8.7°C 11.6°F-11.3°C 81% 14.0 mph SW22.5 kmh SW 14.0 mph22.5 kmh 30.04 in1017.3 mb 0.00 in0.0 mm 0.00 in0.0 mm 0.00 in0.0 mm
07:00 AM 16.4°F-8.7°C 11.6°F-11.3°C 81% 9.0 mph WSW14.5 kmh WSW 15.0 mph24.1 kmh 30.02 in1016.6 mb 0.00 in0.0 mm 0.00 in0.0 mm 0.00 in0.0 mm
07:15 AM 18.3°F-7.6°C 12.6°F-10.8°C 78% 18.0 mph NNE29.0 kmh NNE 21.0 mph33.8 kmh 30.01 in1016.3 mb 0.00 in0.0 mm 0.00 in0.0 mm 0.00 in0.0 mm
07:30 AM 18.3°F-7.6°C 12.6°F-10.8°C 78% 17.0 mph NE27.4 kmh NE 20.0 mph32.2 kmh 30.01 in1016.3 mb 0.00 in0.0 mm 0.00 in0.0 mm 0.00 in0.0 mm
07:45 AM 16.5°F-8.6°C 12.0°F-11.1°C 82% 11.0 mph WSW17.7 kmh WSW 16.0 mph25.7 kmh 30.01 in1016.3 mb 0.00 in0.0 mm 0.00 in0.0 mm 0.00 in0.0 mm
08:00 AM 16.8°F-8.4°C 12.3°F-10.9°C 82% 10.0 mph WSW16.1 kmh WSW 12.0 mph19.3 kmh 30.02 in1016.6 mb 0.00 in0.0 mm 0.00 in0.0 mm 0.00 in0.0 mm
08:15 AM 16.9°F-8.4°C 12.4°F-10.9°C 82% 10.0 mph WSW16.1 kmh WSW 13.0 mph20.9 kmh 30.02 in1016.6 mb 0.00 in0.0 mm 0.00 in0.0 mm 0.00 in0.0 mm
08:30 AM 17.0°F-8.3°C 12.2°F-11.0°C 81% 7.0 mph W11.3 kmh W 12.0 mph19.3 kmh 30.01 in1016.3 mb 0.00 in0.0 mm 0.00 in0.0 mm 0.00 in0.0 mm
08:45 AM 16.8°F-8.4°C 12.0°F-11.1°C 81% 5.0 mph WSW8.0 kmh WSW 13.0 mph20.9 kmh 30.01 in1016.3 mb 0.00 in0.0 mm 0.00 in0.0 mm 0.00 in0.0 mm
09:00 AM 17.4°F-8.1°C 12.9°F-10.6°C 82% 9.0 mph WSW14.5 kmh WSW 12.0 mph19.3 kmh 30.00 in1015.9 mb 0.00 in0.0 mm 0.00 in0.0 mm 0.00 in0.0 mm
09:15 AM 17.8°F-7.9°C 12.7°F-10.7°C 80% 7.0 mph WSW11.3 kmh WSW 13.0 mph20.9 kmh 30.00 in1015.9 mb 0.00 in0.0 mm 0.00 in0.0 mm 0.00 in0.0 mm
09:30 AM 18.5°F-7.5°C 12.5°F-10.8°C 77% 3.0 mph WSW4.8 kmh WSW 17.0 mph27.4 kmh 30.00 in1015.9 mb 0.00 in0.0 mm 0.00 in0.0 mm 0.00 in0.0 mm
09:45 AM 18.9°F-7.3°C 12.3°F-10.9°C 75% 14.0 mph WSW22.5 kmh WSW 21.0 mph33.8 kmh 29.99 in1015.6 mb 0.00 in0.0 mm 0.00 in0.0 mm 0.00 in0.0 mm
10:00 AM 19.5°F-6.9°C 12.6°F-10.8°C 74% 11.0 mph WNW17.7 kmh WNW 12.0 mph19.3 kmh 29.99 in1015.6 mb 0.00 in0.0 mm 0.00 in0.0 mm 0.00 in0.0 mm
10:15 AM 19.7°F-6.8°C 12.5°F-10.8°C 73% 11.0 mph WSW17.7 kmh WSW 22.0 mph35.4 kmh 29.99 in1015.6 mb 0.00 in0.0 mm 0.00 in0.0 mm 0.00 in0.0 mm
10:30 AM 19.8°F-6.8°C 11.9°F-11.2°C 71% 10.0 mph WNW16.1 kmh WNW 17.0 mph27.4 kmh 29.98 in1015.2 mb 0.00 in0.0 mm 0.00 in0.0 mm 0.00 in0.0 mm
10:45 AM 20.3°F-6.5°C 11.8°F-11.2°C 69% 9.0 mph W14.5 kmh W 19.0 mph30.6 kmh 29.98 in1015.2 mb 0.00 in0.0 mm 0.00 in0.0 mm 0.00 in0.0 mm
11:00 AM 20.2°F-6.6°C 11.0°F-11.7°C 67% 9.0 mph W14.5 kmh W 22.0 mph35.4 kmh 29.98 in1015.2 mb 0.00 in0.0 mm 0.00 in0.0 mm 0.00 in0.0 mm
11:15 AM 20.4°F-6.4°C 10.9°F-11.7°C 66% 6.0 mph WSW9.7 kmh WSW 19.0 mph30.6 kmh 29.98 in1015.2 mb 0.00 in0.0 mm 0.00 in0.0 mm 0.00 in0.0 mm
11:30 AM 20.6°F-6.3°C 11.1°F-11.6°C 66% 16.0 mph WSW25.7 kmh WSW 19.0 mph30.6 kmh 29.98 in1015.2 mb 0.00 in0.0 mm 0.00 in0.0 mm 0.00 in0.0 mm
11:45 AM 20.7°F-6.3°C 9.8°F-12.3°C 62% 10.0 mph WSW16.1 kmh WSW 17.0 mph27.4 kmh 29.97 in1014.9 mb 0.00 in0.0 mm 0.00 in0.0 mm 0.00 in0.0 mm
12:00 PM 22.0°F-5.6°C 10.6°F-11.9°C 61% 12.0 mph W19.3 kmh W 16.0 mph25.7 kmh 29.98 in1015.2 mb 0.00 in0.0 mm 0.00 in0.0 mm 0.00 in0.0 mm
12:15 PM 19.2°F-7.1°C 13.5°F-10.3°C 78% 5.0 mph NW8.0 kmh NW 9.0 mph14.5 kmh 29.98 in1015.2 mb 0.00 in0.0 mm 0.00 in0.0 mm 0.00 in0.0 mm
12:30 PM 21.3°F-5.9°C 14.6°F-9.7°C 75% 9.0 mph WSW14.5 kmh WSW 12.0 mph19.3 kmh 29.97 in1014.9 mb 0.00 in0.0 mm 0.00 in0.0 mm 0.00 in0.0 mm
12:45 PM 20.3°F-6.5°C 13.7°F-10.2°C 75% 8.0 mph NW12.9 kmh NW 12.0 mph19.3 kmh 29.97 in1014.9 mb 0.00 in0.0 mm 0.00 in0.0 mm 0.00 in0.0 mm
01:00 PM 19.2°F-7.1°C 13.5°F-10.3°C 78% 12.0 mph NW19.3 kmh NW 19.0 mph30.6 kmh 29.97 in1014.9 mb 0.00 in0.0 mm 0.00 in0.0 mm 0.00 in0.0 mm
01:15 PM 19.5°F-6.9°C 11.6°F-11.3°C 71% 11.0 mph NW17.7 kmh NW 17.0 mph27.4 kmh 29.96 in1014.6 mb 0.00 in0.0 mm 0.00 in0.0 mm 0.00 in0.0 mm
01:30 PM 20.4°F-6.4°C 11.2°F-11.6°C 67% 9.0 mph NW14.5 kmh NW 19.0 mph30.6 kmh 29.96 in1014.6 mb 0.00 in0.0 mm 0.00 in0.0 mm 0.00 in0.0 mm
01:45 PM 20.0°F-6.7°C 12.4°F-10.9°C 72% 7.0 mph NW11.3 kmh NW 14.0 mph22.5 kmh 29.97 in1014.9 mb 0.00 in0.0 mm 0.00 in0.0 mm 0.00 in0.0 mm
02:00 PM 18.4°F-7.6°C 13.8°F-10.1°C 82% 6.0 mph W9.7 kmh W 15.0 mph24.1 kmh 29.97 in1014.9 mb 0.00 in0.0 mm 0.00 in0.0 mm 0.00 in0.0 mm
02:15 PM 19.7°F-6.8°C 13.7°F-10.2°C 77% 9.0 mph W14.5 kmh W 14.0 mph22.5 kmh 29.96 in1014.6 mb 0.00 in0.0 mm 0.00 in0.0 mm 0.00 in0.0 mm
02:30 PM 20.5°F-6.4°C 11.0°F-11.7°C 66% 8.0 mph NW12.9 kmh NW 16.0 mph25.7 kmh 29.97 in1014.9 mb 0.00 in0.0 mm 0.00 in0.0 mm 0.00 in0.0 mm
02:45 PM 18.9°F-7.3°C 12.9°F-10.6°C 77% 9.0 mph NW14.5 kmh NW 22.0 mph35.4 kmh 29.97 in1014.9 mb 0.00 in0.0 mm 0.00 in0.0 mm 0.00 in0.0 mm
03:00 PM 18.4°F-7.6°C 13.8°F-10.1°C 82% 4.0 mph NW6.4 kmh NW 9.0 mph14.5 kmh 29.97 in1014.9 mb 0.00 in0.0 mm 0.00 in0.0 mm 0.00 in0.0 mm
03:15 PM 19.3°F-7.1°C 12.1°F-11.1°C 73% 5.0 mph NW8.0 kmh NW 8.0 mph12.9 kmh 29.97 in1014.9 mb 0.00 in0.0 mm 0.00 in0.0 mm 0.00 in0.0 mm
03:30 PM 19.5°F-6.9°C 9.0°F-12.8°C 63% 10.0 mph W16.1 kmh W 12.0 mph19.3 kmh 29.98 in1015.2 mb 0.00 in0.0 mm 0.00 in0.0 mm 0.00 in0.0 mm
03:45 PM 20.8°F-6.2°C 10.2°F-12.1°C 63% 8.0 mph W12.9 kmh W 10.0 mph16.1 kmh 29.98 in1015.2 mb 0.00 in0.0 mm 0.00 in0.0 mm 0.00 in0.0 mm
04:00 PM 16.5°F-8.6°C 12.5°F-10.8°C 84% 6.0 mph NW9.7 kmh NW 15.0 mph24.1 kmh 30.00 in1015.9 mb 0.00 in0.0 mm 0.00 in0.0 mm 0.00 in0.0 mm
04:15 PM 15.4°F-9.2°C 12.5°F-10.8°C 88% 2.0 mph NW3.2 kmh NW 9.0 mph14.5 kmh 30.02 in1016.6 mb 0.00 in0.0 mm 0.00 in0.0 mm 0.00 in0.0 mm
04:30 PM 16.6°F-8.6°C 13.7°F-10.2°C 88% 5.0 mph NNW8.0 kmh NNW 20.0 mph32.2 kmh 30.02 in1016.6 mb 0.00 in0.0 mm 0.00 in0.0 mm 0.00 in0.0 mm
04:45 PM 16.1°F-8.8°C 11.3°F-11.5°C 81% 6.0 mph NW9.7 kmh NW 14.0 mph22.5 kmh 30.03 in1016.9 mb 0.00 in0.0 mm 0.00 in0.0 mm 0.00 in0.0 mm
05:00 PM 16.1°F-8.8°C 9.9°F-12.3°C 76% 4.0 mph NW6.4 kmh NW 10.0 mph16.1 kmh 30.05 in1017.6 mb 0.00 in0.0 mm 0.00 in0.0 mm 0.00 in0.0 mm
05:15 PM 16.4°F-8.7°C 8.0°F-13.3°C 69% 8.0 mph NW12.9 kmh NW 13.0 mph20.9 kmh 30.06 in1017.9 mb 0.00 in0.0 mm 0.00 in0.0 mm 0.00 in0.0 mm
05:30 PM 13.6°F-10.2°C 5.7°F-14.6°C 70% 3.0 mph NNW4.8 kmh NNW 14.0 mph22.5 kmh 30.07 in1018.3 mb 0.00 in0.0 mm 0.00 in0.0 mm 0.00 in0.0 mm
05:45 PM 13.1°F-10.5°C 5.2°F-14.9°C 70% 5.0 mph NW8.0 kmh NW 13.0 mph20.9 kmh 30.09 in1019.0 mb 0.00 in0.0 mm 0.00 in0.0 mm 0.00 in0.0 mm
06:00 PM 12.3°F-10.9°C 4.4°F-15.3°C 70% 3.0 mph NW4.8 kmh NW 11.0 mph17.7 kmh 30.10 in1019.3 mb 0.00 in0.0 mm 0.00 in0.0 mm 0.00 in0.0 mm
06:15 PM 11.4°F-11.4°C 1.3°F-17.1°C 63% 7.0 mph NW11.3 kmh NW 14.0 mph22.5 kmh 30.11 in1019.6 mb 0.00 in0.0 mm 0.00 in0.0 mm 0.00 in0.0 mm
06:30 PM 10.8°F-11.8°C 0.7°F-17.4°C 63% 7.0 mph NW11.3 kmh NW 10.0 mph16.1 kmh 30.13 in1020.3 mb 0.00 in0.0 mm 0.00 in0.0 mm 0.00 in0.0 mm
06:45 PM 9.9°F-12.3°C 0.2°F-17.7°C 64% 6.0 mph NW9.7 kmh NW 11.0 mph17.7 kmh 30.14 in1020.7 mb 0.00 in0.0 mm 0.00 in0.0 mm 0.00 in0.0 mm
07:00 PM 9.1°F-12.7°C -0.9°F-18.3°C 63% 6.0 mph NW9.7 kmh NW 9.0 mph14.5 kmh 30.15 in1021.0 mb 0.00 in0.0 mm 0.00 in0.0 mm 0.00 in0.0 mm
07:15 PM 8.6°F-13.0°C -1.1°F-18.4°C 64% 6.0 mph NNW9.7 kmh NNW 13.0 mph20.9 kmh 30.17 in1021.7 mb 0.00 in0.0 mm 0.00 in0.0 mm 0.00 in0.0 mm
07:30 PM 7.8°F-13.4°C -2.5°F-19.2°C 62% 7.0 mph NW11.3 kmh NW 14.0 mph22.5 kmh 30.17 in1021.7 mb 0.00 in0.0 mm 0.00 in0.0 mm 0.00 in0.0 mm
07:45 PM 7.2°F-13.8°C -3.4°F-19.7°C 61% 6.0 mph NW9.7 kmh NW 10.0 mph16.1 kmh 30.19 in1022.4 mb 0.00 in0.0 mm 0.00 in0.0 mm 0.00 in0.0 mm
08:00 PM 6.7°F-14.1°C -3.9°F-19.9°C 61% 7.0 mph NW11.3 kmh NW 9.0 mph14.5 kmh 30.20 in1022.7 mb 0.00 in0.0 mm 0.00 in0.0 mm 0.00 in0.0 mm
08:15 PM 6.0°F-14.4°C -3.9°F-19.9°C 63% 12.0 mph NW19.3 kmh NW 15.0 mph24.1 kmh 30.20 in1022.7 mb 0.00 in0.0 mm 0.00 in0.0 mm 0.00 in0.0 mm
08:30 PM 5.5°F-14.7°C -4.0°F-20.0°C 64% 7.0 mph NW11.3 kmh NW 9.0 mph14.5 kmh 30.21 in1023.0 mb 0.00 in0.0 mm 0.00 in0.0 mm 0.00 in0.0 mm
08:45 PM 5.1°F-14.9°C -4.4°F-20.2°C 64% 5.0 mph NW8.0 kmh NW 11.0 mph17.7 kmh 30.22 in1023.4 mb 0.00 in0.0 mm 0.00 in0.0 mm 0.00 in0.0 mm
09:00 PM 4.6°F-15.2°C -4.9°F-20.5°C 64% 5.0 mph NW8.0 kmh NW 9.0 mph14.5 kmh 30.22 in1023.4 mb 0.00 in0.0 mm 0.00 in0.0 mm 0.00 in0.0 mm
09:15 PM 4.5°F-15.3°C -4.7°F-20.4°C 65% 7.0 mph NW11.3 kmh NW 9.0 mph14.5 kmh 30.23 in1023.7 mb 0.00 in0.0 mm 0.00 in0.0 mm 0.00 in0.0 mm
09:30 PM 4.1°F-15.5°C -4.7°F-20.4°C 66% 5.0 mph NW8.0 kmh NW 12.0 mph19.3 kmh 30.23 in1023.7 mb 0.00 in0.0 mm 0.00 in0.0 mm 0.00 in0.0 mm
09:45 PM 3.9°F-15.6°C -4.9°F-20.5°C 66% 6.0 mph WNW9.7 kmh WNW 9.0 mph14.5 kmh 30.24 in1024.0 mb 0.00 in0.0 mm 0.00 in0.0 mm 0.00 in0.0 mm
10:00 PM 3.8°F-15.7°C -4.7°F-20.4°C 67% 8.0 mph NW12.9 kmh NW 10.0 mph16.1 kmh 30.25 in1024.4 mb 0.00 in0.0 mm 0.00 in0.0 mm 0.00 in0.0 mm
10:15 PM 3.6°F-15.8°C -4.6°F-20.3°C 68% 5.0 mph NW8.0 kmh NW 9.0 mph14.5 kmh 30.26 in1024.7 mb 0.00 in0.0 mm 0.00 in0.0 mm 0.00 in0.0 mm
10:30 PM 3.3°F-15.9°C -4.6°F-20.3°C 69% 4.0 mph NW6.4 kmh NW 5.0 mph8.0 kmh 30.27 in1025.1 mb 0.00 in0.0 mm 0.00 in0.0 mm 0.00 in0.0 mm
10:45 PM 3.0°F-16.1°C -4.9°F-20.5°C 69% 3.0 mph NW4.8 kmh NW 6.0 mph9.7 kmh 30.27 in1025.1 mb 0.00 in0.0 mm 0.00 in0.0 mm 0.00 in0.0 mm
11:00 PM 2.7°F-16.3°C -4.8°F-20.4°C 70% Calm Calm 5.0 mph8.0 kmh 30.27 in1025.1 mb 0.00 in0.0 mm 0.00 in0.0 mm 0.00 in0.0 mm
11:15 PM 2.6°F-16.3°C -4.9°F-20.5°C 70% 5.0 mph NW8.0 kmh NW 5.0 mph8.0 kmh 30.28 in1025.4 mb 0.00 in0.0 mm 0.00 in0.0 mm 0.00 in0.0 mm
11:30 PM 2.4°F-16.4°C -5.1°F-20.6°C 70% 3.0 mph NW4.8 kmh NW 5.0 mph8.0 kmh 30.29 in1025.7 mb 0.00 in0.0 mm 0.00 in0.0 mm 0.00 in0.0 mm
11:45 PM 2.1°F-16.6°C -5.1°F-20.6°C 71% 3.0 mph NW4.8 kmh NW 5.0 mph8.0 kmh 30.30 in1026.1 mb 0.00 in0.0 mm 0.00 in0.0 mm 0.00 in0.0 mm